sensor_id;sensor_type;location;lat;lon;timestamp;pressure;altitude;pressure_sealevel;temperature;humidity
29417;BME280;28421;51.030;4.006;2023-02-14T00:02:26;103453.88;;;1.16;80.11
29417;BME280;28421;51.030;4.006;2023-02-14T00:04:51;103481.66;;;1.32;80.12
29417;BME280;28421;51.030;4.006;2023-02-14T00:07:17;103483.50;;;1.30;80.22
29417;BME280;28421;51.030;4.006;2023-02-14T00:09:42;103477.56;;;1.22;80.17
29417;BME280;28421;51.030;4.006;2023-02-14T00:12:07;103439.13;;;1.09;80.13
29417;BME280;28421;51.030;4.006;2023-02-14T00:14:33;103473.06;;;1.24;80.03
29417;BME280;28421;51.030;4.006;2023-02-14T00:17:17;103456.66;;;1.13;79.87
29417;BME280;28421;51.030;4.006;2023-02-14T00:19:42;103452.25;;;1.12;80.10
29417;BME280;28421;51.030;4.006;2023-02-14T00:22:08;103441.00;;;1.05;79.95
29417;BME280;28421;51.030;4.006;2023-02-14T00:24:33;103401.16;;;0.79;79.76
29417;BME280;28421;51.030;4.006;2023-02-14T00:26:59;103417.09;;;0.77;80.17
29417;BME280;28421;51.030;4.006;2023-02-14T00:29:31;103436.13;;;0.91;80.29
29417;BME280;28421;51.030;4.006;2023-02-14T00:31:57;103420.53;;;0.81;79.97
29417;BME280;28421;51.030;4.006;2023-02-14T05:35:12;103389.63;;;-0.84;83.01
29417;BME280;28421;51.030;4.006;2023-02-14T05:37:37;103377.50;;;-0.91;83.07
29417;BME280;28421;51.030;4.006;2023-02-14T05:40:04;103396.47;;;-0.73;83.23
29417;BME280;28421;51.030;4.006;2023-02-14T05:42:29;103363.56;;;-0.97;83.48
29417;BME280;28421;51.030;4.006;2023-02-14T05:44:55;103361.13;;;-1.07;83.21
29417;BME280;28421;51.030;4.006;2023-02-14T05:47:20;103366.25;;;-0.99;82.67
29417;BME280;28421;51.030;4.006;2023-02-14T05:49:46;103324.59;;;-1.25;82.90
29417;BME280;28421;51.030;4.006;2023-02-14T05:52:11;103362.94;;;-1.09;83.14
29417;BME280;28421;51.030;4.006;2023-02-14T05:54:36;103373.66;;;-1.16;82.71
29417;BME280;28421;51.030;4.006;2023-02-14T05:57:02;103324.84;;;-1.36;83.00
29417;BME280;28421;51.030;4.006;2023-02-14T05:59:27;103345.63;;;-1.22;82.96
29417;BME280;28421;51.030;4.006;2023-02-14T06:01:53;103355.16;;;-1.15;82.77
29417;BME280;28421;51.030;4.006;2023-02-14T06:04:18;103325.00;;;-1.43;82.70
29417;BME280;28421;51.030;4.006;2023-02-14T06:06:44;103370.94;;;-1.12;83.03
29417;BME280;28421;51.030;4.006;2023-02-14T06:09:09;103346.75;;;-1.32;82.84
29417;BME280;28421;51.030;4.006;2023-02-14T06:11:34;103375.38;;;-1.14;82.71
29417;BME280;28421;51.030;4.006;2023-02-14T06:14:00;103392.72;;;-1.02;82.63
29417;BME280;28421;51.030;4.006;2023-02-14T06:16:25;103346.78;;;-1.34;82.31
29417;BME280;28421;51.030;4.006;2023-02-14T06:18:51;103408.44;;;-0.97;82.35
29417;BME280;28421;51.030;4.006;2023-02-14T06:21:16;103396.16;;;-0.98;82.60
29417;BME280;28421;51.030;4.006;2023-02-14T06:23:41;103370.19;;;-1.18;82.46
29417;BME280;28421;51.030;4.006;2023-02-14T06:26:07;103336.13;;;-1.29;82.58
29417;BME280;28421;51.030;4.006;2023-02-14T06:28:32;103371.63;;;-1.04;82.66
29417;BME280;28421;51.030;4.006;2023-02-14T06:30:58;103384.84;;;-1.04;81.96
29417;BME280;28421;51.030;4.006;2023-02-14T06:33:23;103339.81;;;-1.38;81.73
29417;BME280;28421;51.030;4.006;2023-02-14T06:35:48;103365.09;;;-1.26;82.03
29417;BME280;28421;51.030;4.006;2023-02-14T06:38:14;103357.22;;;-1.29;81.90
29417;BME280;28421;51.030;4.006;2023-02-14T06:40:39;103419.34;;;-1.11;82.23
29417;BME280;28421;51.030;4.006;2023-02-14T06:43:05;103369.66;;;-1.34;82.37
29417;BME280;28421;51.030;4.006;2023-02-14T06:45:31;103380.81;;;-1.21;82.37
29417;BME280;28421;51.030;4.006;2023-02-14T06:47:56;103369.66;;;-1.33;82.36
29417;BME280;28421;51.030;4.006;2023-02-14T06:50:21;103366.31;;;-1.42;82.58
29417;BME280;28421;51.030;4.006;2023-02-14T06:52:47;103329.78;;;-1.61;82.33
29417;BME280;28421;51.030;4.006;2023-02-14T06:55:12;103399.00;;;-1.08;82.34
29417;BME280;28421;51.030;4.006;2023-02-14T06:57:38;103367.78;;;-1.29;82.21
29417;BME280;28421;51.030;4.006;2023-02-14T07:00:05;103420.69;;;-0.93;82.40
29417;BME280;28421;51.030;4.006;2023-02-14T07:02:30;103391.97;;;-1.07;82.35
29417;BME280;28421;51.030;4.006;2023-02-14T07:04:56;103384.97;;;-1.10;82.70
29417;BME280;28421;51.030;4.006;2023-02-14T07:07:21;103364.19;;;-1.25;82.37
29417;BME280;28421;51.030;4.006;2023-02-14T07:09:47;103411.09;;;-0.97;82.16
29417;BME280;28421;51.030;4.006;2023-02-14T07:12:12;103374.72;;;-1.23;82.53
29417;BME280;28421;51.030;4.006;2023-02-14T07:14:37;103382.69;;;-1.27;82.54
29417;BME280;28421;51.030;4.006;2023-02-14T07:17:03;103375.53;;;-1.21;82.62
29417;BME280;28421;51.030;4.006;2023-02-14T07:19:29;103378.25;;;-1.25;82.50
29417;BME280;28421;51.030;4.006;2023-02-14T07:21:54;103392.28;;;-1.22;82.69
29417;BME280;28421;51.030;4.006;2023-02-14T07:24:19;103393.09;;;-1.19;82.56
29417;BME280;28421;51.030;4.006;2023-02-14T07:26:45;103377.41;;;-1.27;82.86
29417;BME280;28421;51.030;4.006;2023-02-14T07:29:10;103402.56;;;-1.10;82.76
29417;BME280;28421;51.030;4.006;2023-02-14T07:31:36;103410.94;;;-0.91;82.46
29417;BME280;28421;51.030;4.006;2023-02-14T07:34:01;103360.56;;;-1.21;82.80
29417;BME280;28421;51.030;4.006;2023-02-14T07:36:27;103365.75;;;-1.16;82.94
29417;BME280;28421;51.030;4.006;2023-02-14T07:38:54;103398.72;;;-0.95;82.61
29417;BME280;28421;51.030;4.006;2023-02-14T07:41:19;103405.53;;;-0.85;82.70
29417;BME280;28421;51.030;4.006;2023-02-14T07:43:45;103404.63;;;-0.84;82.77
29417;BME280;28421;51.030;4.006;2023-02-14T07:46:10;103387.03;;;-0.85;82.86
29417;BME280;28421;51.030;4.006;2023-02-14T07:48:36;103389.63;;;-0.82;82.70
29417;BME280;28421;51.030;4.006;2023-02-14T07:51:03;103419.78;;;-0.55;83.06
29417;BME280;28421;51.030;4.006;2023-02-14T07:53:28;103352.66;;;-0.82;83.09
29417;BME280;28421;51.030;4.006;2023-02-14T07:55:54;103407.44;;;-0.55;82.84
29417;BME280;28421;51.030;4.006;2023-02-14T07:58:19;103363.88;;;-0.74;82.99
29417;BME280;28421;51.030;4.006;2023-02-14T08:00:45;103384.50;;;-0.54;83.22
29417;BME280;28421;51.030;4.006;2023-02-14T08:03:11;103350.38;;;-0.62;82.85
29417;BME280;28421;51.030;4.006;2023-02-14T08:05:38;103388.50;;;-0.36;82.92
29417;BME280;28421;51.030;4.006;2023-02-14T08:08:03;103364.91;;;-0.44;83.07
29417;BME280;28421;51.030;4.006;2023-02-14T08:10:29;103378.78;;;-0.36;83.35
29417;BME280;28421;51.030;4.006;2023-02-14T08:12:54;103378.59;;;-0.28;83.42
29417;BME280;28421;51.030;4.006;2023-02-14T08:15:23;103374.84;;;-0.19;83.17
29417;BME280;28421;51.030;4.006;2023-02-14T08:18:08;103354.94;;;-0.34;83.20
29417;BME280;28421;51.030;4.006;2023-02-14T08:20:33;103377.16;;;-0.07;83.35
29417;BME280;28421;51.030;4.006;2023-02-14T08:22:58;103386.50;;;0.06;83.50
29417;BME280;28421;51.030;4.006;2023-02-14T08:25:24;103348.75;;;-0.01;83.56
29417;BME280;28421;51.030;4.006;2023-02-14T08:27:49;103359.84;;;0.12;83.70
29417;BME280;28421;51.030;4.006;2023-02-14T08:30:15;103377.28;;;0.19;83.96
29417;BME280;28421;51.030;4.006;2023-02-14T08:32:40;103345.53;;;0.19;84.09
29417;BME280;28421;51.030;4.006;2023-02-14T08:35:06;103361.78;;;0.38;84.35
29417;BME280;28421;51.030;4.006;2023-02-14T08:37:32;103352.22;;;0.33;84.58
29417;BME280;28421;51.030;4.006;2023-02-14T08:39:57;103361.28;;;0.55;85.24
29417;BME280;28421;51.030;4.006;2023-02-14T08:42:23;103374.69;;;0.79;85.09
29417;BME280;28421;51.030;4.006;2023-02-14T08:44:48;103364.00;;;0.82;85.24
29417;BME280;28421;51.030;4.006;2023-02-14T08:47:14;103367.03;;;0.97;85.23
29417;BME280;28421;51.030;4.006;2023-02-14T08:49:39;103355.22;;;1.08;85.69
29417;BME280;28421;51.030;4.006;2023-02-14T08:52:04;103346.47;;;1.06;85.77
29417;BME280;28421;51.030;4.006;2023-02-14T08:54:30;103372.81;;;1.37;86.07
29417;BME280;28421;51.030;4.006;2023-02-14T08:56:56;103338.44;;;1.35;86.09
29417;BME280;28421;51.030;4.006;2023-02-14T08:59:21;103355.66;;;1.75;86.20
29417;BME280;28421;51.030;4.006;2023-02-14T09:01:47;103376.97;;;1.97;86.03
29417;BME280;28421;51.030;4.006;2023-02-14T09:04:12;103351.09;;;1.79;87.04
29417;BME280;28421;51.030;4.006;2023-02-14T09:06:38;103370.31;;;2.10;87.45
29417;BME280;28421;51.030;4.006;2023-02-14T09:09:04;103359.38;;;2.43;87.53
29417;BME280;28421;51.030;4.006;2023-02-14T09:11:29;103365.94;;;2.56;87.41
29417;BME280;28421;51.030;4.006;2023-02-14T09:13:56;103358.72;;;2.83;88.00
29417;BME280;28421;51.030;4.006;2023-02-14T09:16:23;103396.78;;;3.28;88.37
29417;BME280;28421;51.030;4.006;2023-02-14T09:18:50;103356.41;;;3.40;88.80
29417;BME280;28421;51.030;4.006;2023-02-14T09:21:20;103330.41;;;3.46;89.39
29417;BME280;28421;51.030;4.006;2023-02-14T09:23:45;103367.28;;;3.96;89.21
29417;BME280;28421;51.030;4.006;2023-02-14T09:26:13;103390.97;;;4.23;89.38
29417;BME280;28421;51.030;4.006;2023-02-14T09:28:39;103394.19;;;4.50;88.82
29417;BME280;28421;51.030;4.006;2023-02-14T09:33:34;103341.25;;;4.61;88.34
29417;BME280;28421;51.030;4.006;2023-02-14T09:35:59;103368.75;;;4.99;87.86
29417;BME280;28421;51.030;4.006;2023-02-14T09:38:43;103337.63;;;5.00;87.26
29417;BME280;28421;51.030;4.006;2023-02-14T09:44:22;103359.44;;;5.44;86.18
29417;BME280;28421;51.030;4.006;2023-02-14T09:46:51;103383.69;;;5.74;85.35
29417;BME280;28421;51.030;4.006;2023-02-14T09:49:33;103356.44;;;5.68;84.78
29417;BME280;28421;51.030;4.006;2023-02-14T09:52:03;103345.22;;;5.79;83.75
29417;BME280;28421;51.030;4.006;2023-02-14T09:54:32;103335.00;;;5.87;83.40
29417;BME280;28421;51.030;4.006;2023-02-14T09:57:04;103379.00;;;6.14;82.92
29417;BME280;28421;51.030;4.006;2023-02-14T10:00:02;103374.56;;;6.31;82.53
29417;BME280;28421;51.030;4.006;2023-02-14T10:03:02;103363.63;;;6.35;81.93
29417;BME280;28421;51.030;4.006;2023-02-14T10:05:38;103340.50;;;6.34;81.46
29417;BME280;28421;51.030;4.006;2023-02-14T10:08:41;103387.47;;;6.71;81.13
29417;BME280;28421;51.030;4.006;2023-02-14T10:11:14;103382.50;;;6.97;80.71
29417;BME280;28421;51.030;4.006;2023-02-14T10:14:07;103355.13;;;6.92;79.40
29417;BME280;28421;51.030;4.006;2023-02-14T10:16:40;103391.59;;;7.25;78.27
29417;BME280;28421;51.030;4.006;2023-02-14T10:19:17;103336.06;;;6.98;78.23
29417;BME280;28421;51.030;4.006;2023-02-14T10:24:29;103342.47;;;7.26;76.50
29417;BME280;28421;51.030;4.006;2023-02-14T10:27:02;103386.03;;;7.59;75.20
29417;BME280;28421;51.030;4.006;2023-02-14T10:29:28;103341.31;;;7.45;75.23
29417;BME280;28421;51.030;4.006;2023-02-14T10:31:58;103382.13;;;7.65;74.90
29417;BME280;28421;51.030;4.006;2023-02-14T10:34:48;103368.31;;;7.87;74.96
29417;BME280;28421;51.030;4.006;2023-02-14T10:37:43;103369.28;;;7.86;73.95
29417;BME280;28421;51.030;4.006;2023-02-14T10:40:40;103382.88;;;7.97;73.70
29417;BME280;28421;51.030;4.006;2023-02-14T10:43:24;103332.44;;;7.89;74.25
29417;BME280;28421;51.030;4.006;2023-02-14T10:56:40;103360.22;;;8.74;72.47
29417;BME280;28421;51.030;4.006;2023-02-14T11:02:42;103326.88;;;8.78;71.97
29417;BME280;28421;51.030;4.006;2023-02-14T11:05:36;103345.38;;;9.10;71.81
29417;BME280;28421;51.030;4.006;2023-02-14T11:08:18;103313.66;;;9.02;71.54
29417;BME280;28421;51.030;4.006;2023-02-14T11:10:47;103342.41;;;9.27;70.86
29417;BME280;28421;51.030;4.006;2023-02-14T11:13:29;103325.72;;;9.09;69.46
29417;BME280;28421;51.030;4.006;2023-02-14T11:15:58;103303.78;;;9.30;70.13
29417;BME280;28421;51.030;4.006;2023-02-14T11:18:27;103302.09;;;9.41;70.61
29417;BME280;28421;51.030;4.006;2023-02-14T11:21:12;103323.81;;;9.51;69.80
29417;BME280;28421;51.030;4.006;2023-02-14T11:23:40;103307.59;;;9.65;70.06
29417;BME280;28421;51.030;4.006;2023-02-14T11:26:29;103311.91;;;9.68;69.99
29417;BME280;28421;51.030;4.006;2023-02-14T11:28:58;103278.03;;;9.53;69.70
29417;BME280;28421;51.030;4.006;2023-02-14T11:31:30;103293.22;;;9.66;68.92
29417;BME280;28421;51.030;4.006;2023-02-14T11:33:57;103283.00;;;9.71;68.22
29417;BME280;28421;51.030;4.006;2023-02-14T11:36:23;103284.06;;;9.82;68.30
29417;BME280;28421;51.030;4.006;2023-02-14T11:41:52;103266.56;;;9.89;68.46
29417;BME280;28421;51.030;4.006;2023-02-14T11:44:21;103221.09;;;9.60;67.00
29417;BME280;28421;51.030;4.006;2023-02-14T11:46:50;103266.88;;;9.97;68.41
29417;BME280;28421;51.030;4.006;2023-02-14T11:49:25;103222.78;;;9.87;68.03
29417;BME280;28421;51.030;4.006;2023-02-14T11:51:53;103283.81;;;10.23;68.00
29417;BME280;28421;51.030;4.006;2023-02-14T11:54:28;103251.16;;;10.16;67.30
29417;BME280;28421;51.030;4.006;2023-02-14T12:00:15;103269.06;;;10.54;66.60
29417;BME280;28421;51.030;4.006;2023-02-14T12:02:46;103270.13;;;10.52;67.19
29417;BME280;28421;51.030;4.006;2023-02-14T12:05:21;103264.81;;;10.63;66.96
29417;BME280;28421;51.030;4.006;2023-02-14T12:07:53;103250.72;;;10.59;66.80
29417;BME280;28421;51.030;4.006;2023-02-14T12:10:27;103263.06;;;10.75;66.42
29417;BME280;28421;51.030;4.006;2023-02-14T12:17:59;103243.97;;;10.78;66.31
29417;BME280;28421;51.030;4.006;2023-02-14T12:20:39;103252.34;;;10.86;65.66
29417;BME280;28421;51.030;4.006;2023-02-14T12:23:17;103252.69;;;10.81;65.71
29417;BME280;28421;51.030;4.006;2023-02-14T12:25:57;103243.34;;;10.98;65.64
29417;BME280;28421;51.030;4.006;2023-02-14T12:28:31;103233.81;;;11.05;66.29
29417;BME280;28421;51.030;4.006;2023-02-14T12:31:08;103231.91;;;11.07;65.67
29417;BME280;28421;51.030;4.006;2023-02-14T12:33:35;103210.81;;;11.01;64.93
29417;BME280;28421;51.030;4.006;2023-02-14T12:36:26;103228.75;;;11.36;64.22
29417;BME280;28421;51.030;4.006;2023-02-14T12:39:07;103195.69;;;11.23;64.34
29417;BME280;28421;51.030;4.006;2023-02-14T12:41:52;103224.84;;;11.29;63.95
29417;BME280;28421;51.030;4.006;2023-02-14T12:44:40;103223.28;;;11.37;63.79
29417;BME280;28421;51.030;4.006;2023-02-14T12:56:05;103206.28;;;11.70;63.17
29417;BME280;28421;51.030;4.006;2023-02-14T12:59:01;103202.38;;;11.75;62.80
29417;BME280;28421;51.030;4.006;2023-02-14T13:06:51;103195.28;;;11.85;62.43
29417;BME280;28421;51.030;4.006;2023-02-14T13:09:52;103190.88;;;11.84;62.65
29417;BME280;28421;51.030;4.006;2023-02-14T13:12:37;103192.81;;;11.82;62.32
29417;BME280;28421;51.030;4.006;2023-02-14T13:17:59;103140.25;;;11.76;62.81
29417;BME280;28421;51.030;4.006;2023-02-14T13:20:55;103181.28;;;12.13;63.38
29417;BME280;28421;51.030;4.006;2023-02-14T13:23:28;103177.97;;;12.21;62.11
29417;BME280;28421;51.030;4.006;2023-02-14T13:26:04;103143.44;;;12.04;61.81
29417;BME280;28421;51.030;4.006;2023-02-14T13:28:31;103168.28;;;12.18;61.06
29417;BME280;28421;51.030;4.006;2023-02-14T13:30:59;103159.38;;;12.07;61.23
29417;BME280;28421;51.030;4.006;2023-02-14T13:33:37;103154.47;;;12.01;61.90
29417;BME280;28421;51.030;4.006;2023-02-14T13:36:10;103174.75;;;12.27;61.90
29417;BME280;28421;51.030;4.006;2023-02-14T13:38:42;103165.31;;;12.33;61.54
29417;BME280;28421;51.030;4.006;2023-02-14T13:41:09;103116.56;;;12.13;61.84
29417;BME280;28421;51.030;4.006;2023-02-14T13:46:09;103121.69;;;12.28;61.03
29417;BME280;28421;51.030;4.006;2023-02-14T13:48:35;103100.53;;;12.12;60.53
29417;BME280;28421;51.030;4.006;2023-02-14T13:51:08;103144.22;;;12.38;60.36
29417;BME280;28421;51.030;4.006;2023-02-14T13:53:41;103149.47;;;12.39;60.90
29417;BME280;28421;51.030;4.006;2023-02-14T13:58:49;103105.13;;;12.32;60.65
29417;BME280;28421;51.030;4.006;2023-02-14T14:04:05;103137.81;;;12.39;59.96
29417;BME280;28421;51.030;4.006;2023-02-14T14:19:57;103089.34;;;12.16;58.97
29417;BME280;28421;51.030;4.006;2023-02-14T14:22:23;103110.38;;;12.34;59.68
29417;BME280;28421;51.030;4.006;2023-02-14T14:25:02;103136.97;;;12.38;58.57
29417;BME280;28421;51.030;4.006;2023-02-14T14:27:47;103111.63;;;12.30;59.50
29417;BME280;28421;51.030;4.006;2023-02-14T14:30:34;103135.44;;;12.57;58.57
29417;BME280;28421;51.030;4.006;2023-02-14T14:36:21;103051.13;;;12.11;60.02
29417;BME280;28421;51.030;4.006;2023-02-14T14:38:49;103099.84;;;12.31;60.35
29417;BME280;28421;51.030;4.006;2023-02-14T14:41:16;103093.50;;;12.21;59.71
29417;BME280;28421;51.030;4.006;2023-02-14T14:43:42;103087.00;;;12.23;59.92
29417;BME280;28421;51.030;4.006;2023-02-14T14:46:10;103080.00;;;12.32;59.06
29417;BME280;28421;51.030;4.006;2023-02-14T14:48:44;103062.88;;;12.10;58.89
29417;BME280;28421;51.030;4.006;2023-02-14T14:51:27;103073.88;;;12.18;59.52
29417;BME280;28421;51.030;4.006;2023-02-14T14:54:04;103075.13;;;12.14;59.03
29417;BME280;28421;51.030;4.006;2023-02-14T14:56:36;103057.88;;;12.06;59.67
29417;BME280;28421;51.030;4.006;2023-02-14T15:01:47;103120.00;;;12.48;59.17
29417;BME280;28421;51.030;4.006;2023-02-14T15:04:17;103097.63;;;12.36;59.12
29417;BME280;28421;51.030;4.006;2023-02-14T15:06:44;103095.38;;;12.09;58.56
29417;BME280;28421;51.030;4.006;2023-02-14T15:09:17;103111.75;;;12.28;59.44
29417;BME280;28421;51.030;4.006;2023-02-14T15:11:44;103098.59;;;12.35;58.90
29417;BME280;28421;51.030;4.006;2023-02-14T15:14:34;103096.97;;;12.11;58.72
29417;BME280;28421;51.030;4.006;2023-02-14T15:17:05;103107.75;;;12.43;58.95
29417;BME280;28421;51.030;4.006;2023-02-14T15:19:37;103104.81;;;12.47;58.84
29417;BME280;28421;51.030;4.006;2023-02-14T15:22:06;103108.22;;;12.28;58.70
29417;BME280;28421;51.030;4.006;2023-02-14T15:24:41;103078.19;;;12.21;59.00
29417;BME280;28421;51.030;4.006;2023-02-14T15:27:14;103082.59;;;12.22;59.09
29417;BME280;28421;51.030;4.006;2023-02-14T15:29:40;103060.56;;;12.06;57.80
29417;BME280;28421;51.030;4.006;2023-02-14T15:32:08;103061.25;;;11.87;58.66
29417;BME280;28421;51.030;4.006;2023-02-14T15:34:35;103067.56;;;12.08;58.51
29417;BME280;28421;51.030;4.006;2023-02-14T15:37:02;103079.63;;;12.25;58.42
29417;BME280;28421;51.030;4.006;2023-02-14T15:39:42;103054.63;;;12.23;58.49
29417;BME280;28421;51.030;4.006;2023-02-14T15:42:26;103070.13;;;12.42;58.40
29417;BME280;28421;51.030;4.006;2023-02-14T15:47:37;103064.94;;;12.50;56.67
29417;BME280;28421;51.030;4.006;2023-02-14T15:50:12;103070.00;;;12.64;57.05
29417;BME280;28421;51.030;4.006;2023-02-14T15:52:39;103064.41;;;12.77;56.93
29417;BME280;28421;51.030;4.006;2023-02-14T15:55:08;103046.94;;;12.81;56.88
29417;BME280;28421;51.030;4.006;2023-02-14T15:57:34;103086.50;;;13.13;56.72
29417;BME280;28421;51.030;4.006;2023-02-14T16:00:05;103087.16;;;13.05;56.32
29417;BME280;28421;51.030;4.006;2023-02-14T16:02:41;103043.59;;;12.89;56.58
29417;BME280;28421;51.030;4.006;2023-02-14T16:05:21;103030.19;;;12.57;57.04
29417;BME280;28421;51.030;4.006;2023-02-14T16:08:02;103040.31;;;12.64;57.40
29417;BME280;28421;51.030;4.006;2023-02-14T16:10:31;103030.97;;;12.48;57.35
29417;BME280;28421;51.030;4.006;2023-02-14T16:13:03;103046.84;;;12.41;57.50
29417;BME280;28421;51.030;4.006;2023-02-14T16:15:35;103023.63;;;12.17;57.69
29417;BME280;28421;51.030;4.006;2023-02-14T16:18:02;103077.75;;;12.37;58.22
29417;BME280;28421;51.030;4.006;2023-02-14T16:20:40;103080.28;;;12.17;59.07
29417;BME280;28421;51.030;4.006;2023-02-14T16:23:31;103024.03;;;11.69;59.45
29417;BME280;28421;51.030;4.006;2023-02-14T16:25:57;103064.19;;;11.84;59.71
29417;BME280;28421;51.030;4.006;2023-02-14T16:28:27;103039.75;;;11.53;60.07
29417;BME280;28421;51.030;4.006;2023-02-14T16:30:57;103061.03;;;11.56;60.39
29417;BME280;28421;51.030;4.006;2023-02-14T16:33:34;103076.00;;;11.49;60.76
29417;BME280;28421;51.030;4.006;2023-02-14T16:36:17;103068.38;;;11.32;61.27
29417;BME280;28421;51.030;4.006;2023-02-14T16:38:45;103069.03;;;11.24;61.23
29417;BME280;28421;51.030;4.006;2023-02-14T16:41:22;103036.31;;;10.84;61.89
29417;BME280;28421;51.030;4.006;2023-02-14T16:43:49;103032.59;;;10.62;62.31
29417;BME280;28421;51.030;4.006;2023-02-14T16:46:16;103069.06;;;10.66;62.93
29417;BME280;28421;51.030;4.006;2023-02-14T16:48:43;103013.59;;;10.17;63.30
29417;BME280;28421;51.030;4.006;2023-02-14T16:51:15;103064.00;;;10.27;63.61
29417;BME280;28421;51.030;4.006;2023-02-14T16:53:41;103077.88;;;10.33;63.88
29417;BME280;28421;51.030;4.006;2023-02-14T16:56:12;103036.44;;;9.88;63.89
29417;BME280;28421;51.030;4.006;2023-02-14T16:58:39;103058.66;;;9.90;64.53
29417;BME280;28421;51.030;4.006;2023-02-14T17:01:06;103078.59;;;9.87;64.79
29417;BME280;28421;51.030;4.006;2023-02-14T17:03:31;103081.69;;;9.81;65.00
29417;BME280;28421;51.030;4.006;2023-02-14T17:05:59;103041.63;;;9.29;65.20
29417;BME280;28421;51.030;4.006;2023-02-14T17:08:26;103040.06;;;9.13;65.30
29417;BME280;28421;51.030;4.006;2023-02-14T17:10:53;103058.34;;;9.08;65.73
29417;BME280;28421;51.030;4.006;2023-02-14T17:13:22;103055.84;;;8.92;66.10
29417;BME280;28421;51.030;4.006;2023-02-14T17:15:49;103066.59;;;8.80;66.65
29417;BME280;28421;51.030;4.006;2023-02-14T17:18:15;103008.97;;;8.33;66.68
29417;BME280;28421;51.030;4.006;2023-02-14T17:20:42;103053.88;;;8.43;67.20
29417;BME280;28421;51.030;4.006;2023-02-14T17:23:08;103037.25;;;8.24;67.35
29417;BME280;28421;51.030;4.006;2023-02-14T17:25:33;103069.13;;;8.29;67.42
29417;BME280;28421;51.030;4.006;2023-02-14T17:27:59;103062.19;;;8.12;67.53
29417;BME280;28421;51.030;4.006;2023-02-14T17:30:25;103076.75;;;8.08;67.72
29417;BME280;28421;51.030;4.006;2023-02-14T17:32:51;103061.25;;;7.86;68.05
29417;BME280;28421;51.030;4.006;2023-02-14T17:35:16;103069.59;;;7.81;68.27
29417;BME280;28421;51.030;4.006;2023-02-14T17:37:42;103072.00;;;7.71;69.19
29417;BME280;28421;51.030;4.006;2023-02-14T17:40:08;103065.69;;;7.58;69.29
29417;BME280;28421;51.030;4.006;2023-02-14T17:42:34;103041.28;;;7.36;69.41
29417;BME280;28421;51.030;4.006;2023-02-14T17:45:00;103055.41;;;7.38;69.50
29417;BME280;28421;51.030;4.006;2023-02-14T17:47:25;103039.56;;;7.20;69.60
29417;BME280;28421;51.030;4.006;2023-02-14T17:49:51;103047.78;;;7.17;69.80
29417;BME280;28421;51.030;4.006;2023-02-14T17:52:16;103041.69;;;7.01;70.00
29417;BME280;28421;51.030;4.006;2023-02-14T17:54:43;103054.28;;;6.99;70.31
29417;BME280;28421;51.030;4.006;2023-02-14T17:57:08;103034.59;;;6.86;70.38
29417;BME280;28421;51.030;4.006;2023-02-14T17:59:34;103089.06;;;7.13;70.89
29417;BME280;28421;51.030;4.006;2023-02-14T18:02:00;103044.22;;;6.74;71.24
29417;BME280;28421;51.030;4.006;2023-02-14T18:04:26;103046.78;;;6.76;70.87
29417;BME280;28421;51.030;4.006;2023-02-14T18:06:54;103051.72;;;6.67;71.29
29417;BME280;28421;51.030;4.006;2023-02-14T18:09:19;103051.34;;;6.59;71.62
29417;BME280;28421;51.030;4.006;2023-02-14T18:11:46;103020.75;;;6.35;71.75
29417;BME280;28421;51.030;4.006;2023-02-14T18:14:12;103055.53;;;6.49;71.70
29417;BME280;28421;51.030;4.006;2023-02-14T18:16:38;103094.59;;;6.66;71.96
29417;BME280;28421;51.030;4.006;2023-02-14T18:19:05;103058.16;;;6.35;72.39
29417;BME280;28421;51.030;4.006;2023-02-14T18:21:32;103066.31;;;6.47;72.16
29417;BME280;28421;51.030;4.006;2023-02-14T18:24:00;103084.75;;;6.52;72.22
29417;BME280;28421;51.030;4.006;2023-02-14T18:26:26;103058.69;;;6.26;72.37
29417;BME280;28421;51.030;4.006;2023-02-14T18:28:51;103049.31;;;6.18;72.26
29417;BME280;28421;51.030;4.006;2023-02-14T18:31:18;103063.44;;;6.20;72.47
29417;BME280;28421;51.030;4.006;2023-02-14T18:33:45;103035.16;;;6.02;72.43
29417;BME280;28421;51.030;4.006;2023-02-14T18:36:17;103079.13;;;6.27;72.32
29417;BME280;28421;51.030;4.006;2023-02-14T18:38:44;103077.91;;;6.16;72.29
29417;BME280;28421;51.030;4.006;2023-02-14T18:41:13;103023.84;;;5.81;71.95
29417;BME280;28421;51.030;4.006;2023-02-14T18:43:39;103078.19;;;5.96;71.88
29417;BME280;28421;51.030;4.006;2023-02-14T18:46:13;103049.44;;;5.69;72.16
29417;BME280;28421;51.030;4.006;2023-02-14T18:48:39;103044.94;;;5.54;72.06
29417;BME280;28421;51.030;4.006;2023-02-14T18:51:06;103032.44;;;5.39;72.48
29417;BME280;28421;51.030;4.006;2023-02-14T18:53:33;103031.94;;;5.32;73.29
29417;BME280;28421;51.030;4.006;2023-02-14T18:56:03;103069.13;;;5.51;73.04
29417;BME280;28421;51.030;4.006;2023-02-14T18:58:28;103052.31;;;5.33;73.23
29417;BME280;28421;51.030;4.006;2023-02-14T19:00:54;103069.03;;;5.37;72.76
29417;BME280;28421;51.030;4.006;2023-02-14T19:03:20;103062.47;;;5.27;72.91
29417;BME280;28421;51.030;4.006;2023-02-14T19:05:46;103017.31;;;4.90;73.47
29417;BME280;28421;51.030;4.006;2023-02-14T19:08:11;103030.09;;;4.84;73.42
29417;BME280;28421;51.030;4.006;2023-02-14T19:10:37;103021.66;;;4.76;73.92
29417;BME280;28421;51.030;4.006;2023-02-14T19:13:02;103020.25;;;4.68;74.24
29417;BME280;28421;51.030;4.006;2023-02-14T19:15:27;103032.47;;;4.72;74.13
29417;BME280;28421;51.030;4.006;2023-02-14T19:17:53;103027.88;;;4.59;74.30
29417;BME280;28421;51.030;4.006;2023-02-14T19:20:18;103020.28;;;4.51;74.37
29417;BME280;28421;51.030;4.006;2023-02-14T19:22:44;103038.69;;;4.56;74.56
29417;BME280;28421;51.030;4.006;2023-02-14T19:25:09;103045.03;;;4.53;74.34
29417;BME280;28421;51.030;4.006;2023-02-14T19:27:35;103033.13;;;4.43;74.73
29417;BME280;28421;51.030;4.006;2023-02-14T19:30:01;103009.31;;;4.22;74.64
29417;BME280;28421;51.030;4.006;2023-02-14T19:32:27;102990.66;;;4.05;74.63